createdAt,value
2018-05-02T00:01:06.531Z,10.70
2018-05-02T00:03:37.304Z,10.63
2018-05-02T00:06:08.111Z,10.65
2018-05-02T00:08:39.612Z,10.67
2018-05-02T00:11:10.435Z,10.63
2018-05-02T00:13:41.205Z,10.60
2018-05-02T00:16:12.019Z,10.63
2018-05-02T00:18:42.829Z,10.67
2018-05-02T00:21:13.615Z,10.68
2018-05-02T00:23:44.407Z,10.66
2018-05-02T00:26:15.199Z,10.72
2018-05-02T00:28:45.977Z,10.67
2018-05-02T00:31:16.779Z,10.73
2018-05-02T00:33:47.584Z,10.72
2018-05-02T00:36:18.396Z,10.73
2018-05-02T00:38:49.194Z,10.72
2018-05-02T00:41:19.999Z,10.69
2018-05-02T00:43:50.787Z,10.69
2018-05-02T00:46:21.580Z,10.72
2018-05-02T00:49:04.701Z,10.70
2018-05-02T00:51:35.483Z,10.66
2018-05-02T00:54:06.344Z,10.69
2018-05-02T00:56:37.082Z,10.70
2018-05-02T00:59:07.857Z,10.72
2018-05-02T01:01:38.643Z,10.72
2018-05-02T01:04:09.435Z,10.70
2018-05-02T01:06:40.215Z,10.79
2018-05-02T01:09:10.979Z,10.82
2018-05-02T01:11:41.768Z,10.76
2018-05-02T01:14:12.551Z,10.80
2018-05-02T01:16:43.340Z,10.82
2018-05-02T01:19:14.111Z,10.78
2018-05-02T01:21:44.899Z,10.81
2018-05-02T01:24:15.683Z,10.79
2018-05-02T01:26:46.475Z,10.86
2018-05-02T01:29:17.254Z,10.85
2018-05-02T01:31:48.056Z,10.83
2018-05-02T01:34:18.861Z,10.85
2018-05-02T01:36:49.655Z,10.86
2018-05-02T01:39:20.411Z,10.84
2018-05-02T01:41:51.195Z,10.86
2018-05-02T01:44:21.969Z,10.88
2018-05-02T01:46:52.752Z,10.87
2018-05-02T01:49:23.543Z,10.85
2018-05-02T01:51:54.322Z,10.88
2018-05-02T01:54:25.092Z,10.91
2018-05-02T01:56:55.856Z,10.89
2018-05-02T01:59:26.636Z,10.88
2018-05-02T02:01:57.435Z,10.91
2018-05-02T02:04:28.196Z,10.97
2018-05-02T02:06:58.986Z,10.87
2018-05-02T02:09:29.759Z,10.89
2018-05-02T02:12:00.564Z,10.94
2018-05-02T02:14:31.364Z,10.98
2018-05-02T02:17:02.148Z,10.98
2018-05-02T02:19:32.944Z,10.96
2018-05-02T02:22:03.757Z,11.01
2018-05-02T02:24:34.529Z,11.00
2018-05-02T02:27:05.322Z,11.03
2018-05-02T02:29:36.090Z,11.07
2018-05-02T02:32:06.916Z,11.07
2018-05-02T02:34:37.679Z,11.11
2018-05-02T02:37:08.471Z,11.10
2018-05-02T02:39:39.239Z,11.09
2018-05-02T02:42:10.729Z,11.04
2018-05-02T02:44:41.516Z,11.08
2018-05-02T02:47:12.302Z,11.05
2018-05-02T02:49:43.115Z,11.07
2018-05-02T02:52:14.565Z,11.03
2018-05-02T02:54:45.377Z,11.02
2018-05-02T02:57:16.166Z,11.01
2018-05-02T02:59:46.948Z,10.97
2018-05-02T03:02:17.719Z,11.00
2018-05-02T03:04:48.493Z,10.99
2018-05-02T03:07:19.289Z,11.00
2018-05-02T03:09:50.073Z,11.02
2018-05-02T03:12:20.843Z,11.05
2018-05-02T03:14:51.604Z,11.03
2018-05-02T03:17:22.415Z,11.01
2018-05-02T03:19:53.179Z,11.09
2018-05-02T03:22:23.950Z,11.14
2018-05-02T03:24:54.725Z,11.13
2018-05-02T03:27:25.517Z,11.16
2018-05-02T03:29:57.276Z,11.12
2018-05-02T03:32:28.067Z,11.10
2018-05-02T03:34:58.844Z,11.10
2018-05-02T03:37:29.628Z,11.14
2018-05-02T03:40:00.413Z,11.16
2018-05-02T03:42:31.196Z,11.14
2018-05-02T03:45:01.998Z,11.17
2018-05-02T03:47:32.847Z,11.19
2018-05-02T03:50:03.651Z,11.22
2018-05-02T03:52:34.445Z,11.20
2018-05-02T03:55:05.225Z,11.17
2018-05-02T03:57:36.032Z,11.19
2018-05-02T04:00:19.177Z,11.21
2018-05-02T04:03:02.430Z,11.26
2018-05-02T04:05:45.439Z,11.18
2018-05-02T04:08:16.231Z,11.22
2018-05-02T04:10:47.040Z,11.21
2018-05-02T04:13:17.847Z,11.34
2018-05-02T04:15:48.643Z,11.28
2018-05-02T04:18:19.563Z,11.29
2018-05-02T04:20:50.329Z,11.33
2018-05-02T04:23:21.138Z,11.24
2018-05-02T04:25:51.923Z,11.25
2018-05-02T04:28:23.258Z,11.21
2018-05-02T04:30:54.032Z,11.25
2018-05-02T04:33:24.808Z,11.35
2018-05-02T04:35:55.571Z,11.34
2018-05-02T04:38:26.363Z,11.42
2018-05-02T04:40:57.177Z,11.31
2018-05-02T04:43:27.991Z,11.32
2018-05-02T04:45:58.751Z,11.44
2018-05-02T04:48:29.536Z,11.46
2018-05-02T04:51:00.298Z,11.51
2018-05-02T04:53:32.080Z,11.61
2018-05-02T04:56:02.899Z,11.73
2018-05-02T04:58:33.663Z,11.88
2018-05-02T05:01:04.466Z,11.88
2018-05-02T05:03:35.268Z,12.06
2018-05-02T05:06:06.047Z,12.15
2018-05-02T05:08:36.823Z,12.17
2018-05-02T05:11:07.592Z,12.23
2018-05-02T05:13:38.374Z,12.39
2018-05-02T05:16:09.140Z,12.42
2018-05-02T05:18:39.926Z,12.46
2018-05-02T05:21:10.701Z,12.43
2018-05-02T05:23:41.484Z,12.53
2018-05-02T05:26:12.264Z,12.63
2018-05-02T05:28:43.051Z,12.70
2018-05-02T05:31:14.678Z,12.74
2018-05-02T05:33:45.471Z,12.66
2018-05-02T05:36:16.256Z,12.67
2018-05-02T05:38:47.072Z,12.66
2018-05-02T05:41:17.891Z,12.77
2018-05-02T05:43:48.692Z,12.92
2018-05-02T05:46:19.468Z,13.07
2018-05-02T05:48:50.250Z,13.28
2018-05-02T05:51:21.012Z,13.34
2018-05-02T05:53:51.810Z,13.19
2018-05-02T05:56:22.596Z,13.11
2018-05-02T05:58:53.375Z,13.14
2018-05-02T06:01:24.152Z,13.23
2018-05-02T06:03:54.960Z,13.29
2018-05-02T06:06:25.719Z,13.15
2018-05-02T06:08:56.532Z,13.21
2018-05-02T06:11:27.311Z,13.39
2018-05-02T06:13:58.100Z,13.25
2018-05-02T06:16:28.910Z,13.56
2018-05-02T06:18:59.736Z,13.87
2018-05-02T06:21:30.512Z,13.99
2018-05-02T06:24:01.312Z,14.23
2018-05-02T06:26:32.131Z,14.87
2018-05-02T06:29:02.929Z,15.34
2018-05-02T06:31:33.780Z,15.75
2018-05-02T06:34:04.537Z,15.79
2018-05-02T06:36:35.312Z,15.32
2018-05-02T06:39:06.141Z,15.33
2018-05-02T06:41:36.931Z,15.44
2018-05-02T06:44:07.744Z,15.32
2018-05-02T06:46:38.556Z,15.93
2018-05-02T06:49:09.387Z,15.64
2018-05-02T06:51:40.168Z,15.31
2018-05-02T06:54:10.981Z,15.82
2018-05-02T06:56:41.737Z,16.01
2018-05-02T06:59:12.531Z,16.13
2018-05-02T07:01:43.303Z,15.85
2018-05-02T07:04:14.122Z,15.81
2018-05-02T07:06:44.895Z,15.76
2018-05-02T07:09:15.666Z,16.17
2018-05-02T07:11:46.450Z,17.08
2018-05-02T07:14:17.228Z,16.12
2018-05-02T07:16:48.012Z,16.50
2018-05-02T07:19:18.796Z,16.53
2018-05-02T07:21:49.579Z,16.98
2018-05-02T07:24:20.363Z,17.04
2018-05-02T07:26:51.138Z,18.80
2018-05-02T07:29:21.933Z,18.53
2018-05-02T07:31:52.758Z,18.77
2018-05-02T07:34:23.607Z,20.94
2018-05-02T07:36:54.379Z,21.07
2018-05-02T07:39:25.231Z,20.69
2018-05-02T07:41:56.076Z,20.17
2018-05-02T07:44:26.883Z,20.60
2018-05-02T07:46:57.664Z,19.91
2018-05-02T07:49:28.465Z,21.35
2018-05-02T07:51:59.243Z,22.17
2018-05-02T07:54:30.072Z,21.83
2018-05-02T07:57:00.873Z,21.30
2018-05-02T07:59:31.671Z,21.53
2018-05-02T08:02:02.462Z,22.71
2018-05-02T08:04:33.253Z,21.99
2018-05-02T08:07:04.024Z,21.57
2018-05-02T08:09:34.833Z,22.31
2018-05-02T08:12:06.211Z,22.59
2018-05-02T08:14:37.016Z,24.73
2018-05-02T08:17:07.798Z,24.49
2018-05-02T08:19:39.212Z,23.24
2018-05-02T08:22:10.029Z,23.28
2018-05-02T08:24:40.824Z,24.48
2018-05-02T08:27:11.583Z,25.62
2018-05-02T08:29:42.792Z,25.76
2018-05-02T08:32:13.683Z,25.06
2018-05-02T08:34:44.485Z,24.16
2018-05-02T08:37:15.248Z,23.12
2018-05-02T08:39:46.072Z,23.59
2018-05-02T08:42:16.885Z,24.63
2018-05-02T08:44:47.907Z,24.05
2018-05-02T08:47:18.723Z,24.06
2018-05-02T08:49:49.611Z,24.42
2018-05-02T08:52:20.324Z,24.15
2018-05-02T08:54:58.061Z,22.89
2018-05-02T08:57:28.845Z,22.35
2018-05-02T08:59:59.624Z,21.81
2018-05-02T09:02:30.403Z,22.64
2018-05-02T09:05:01.220Z,23.81
2018-05-02T09:07:31.992Z,24.06
2018-05-02T09:10:04.459Z,23.77
2018-05-02T09:12:35.220Z,23.99
2018-05-02T09:15:05.983Z,23.10
2018-05-02T09:17:36.797Z,23.69
2018-05-02T09:20:07.600Z,24.42
2018-05-02T09:22:38.369Z,24.00
2018-05-02T09:25:09.187Z,25.00
2018-05-02T09:27:39.951Z,24.94
2018-05-02T09:30:10.730Z,24.17
2018-05-02T09:32:41.527Z,24.42
2018-05-02T09:35:12.311Z,24.46
2018-05-02T09:37:43.096Z,24.54
2018-05-02T09:40:13.893Z,24.95
2018-05-02T09:42:44.689Z,24.68
2018-05-02T09:45:15.484Z,24.06
2018-05-02T09:47:46.273Z,24.55
2018-05-02T09:50:17.071Z,24.93
2018-05-02T09:52:47.839Z,24.58
2018-05-02T09:55:18.625Z,24.84
2018-05-02T09:57:49.401Z,24.12
2018-05-02T10:00:20.227Z,22.93
2018-05-02T10:02:50.991Z,23.07
2018-05-02T10:05:21.779Z,24.09
2018-05-02T10:07:52.547Z,24.28
2018-05-02T10:10:23.412Z,23.32
2018-05-02T10:12:54.172Z,22.33
2018-05-02T10:15:24.959Z,22.07
2018-05-02T10:17:55.736Z,22.31
2018-05-02T10:20:26.539Z,21.55
2018-05-02T10:22:57.364Z,22.46
2018-05-02T10:25:28.167Z,23.29
2018-05-02T10:27:58.963Z,24.10
2018-05-02T10:30:29.743Z,24.58
2018-05-02T10:33:01.518Z,25.02
2018-05-02T10:35:32.306Z,24.44
2018-05-02T10:38:03.097Z,23.80
2018-05-02T10:40:33.938Z,23.25
2018-05-02T10:43:04.811Z,23.17
2018-05-02T10:45:35.548Z,23.87
2018-05-02T10:48:06.303Z,24.53
2018-05-02T10:50:37.108Z,26.29
2018-05-02T10:53:09.238Z,26.69
2018-05-02T10:55:40.059Z,26.26
2018-05-02T10:58:10.840Z,25.32
2018-05-02T11:00:41.613Z,25.07
2018-05-02T11:03:12.364Z,25.46
2018-05-02T11:05:43.189Z,25.09
2018-05-02T11:08:13.955Z,24.55
2018-05-02T11:10:44.795Z,24.48
2018-05-02T11:13:15.579Z,25.34
2018-05-02T11:15:46.392Z,26.47
2018-05-02T11:18:17.180Z,26.73
2018-05-02T11:20:47.992Z,26.78
2018-05-02T11:23:18.756Z,25.80
2018-05-02T11:25:49.536Z,24.78
2018-05-02T11:28:20.383Z,25.42
2018-05-02T11:30:51.116Z,25.17
2018-05-02T11:33:21.895Z,25.45
2018-05-02T11:35:52.688Z,25.35
2018-05-02T11:38:23.493Z,25.55
2018-05-02T11:40:54.278Z,25.82
2018-05-02T11:43:25.067Z,26.21
2018-05-02T11:45:55.877Z,26.17
2018-05-02T11:48:26.654Z,25.67
2018-05-02T11:50:57.455Z,26.23
2018-05-02T11:56:14.156Z,24.86
2018-05-02T11:58:44.938Z,26.25
2018-05-02T12:01:15.764Z,25.64
2018-05-02T12:03:46.552Z,26.11
2018-05-02T12:06:17.344Z,26.04
2018-05-02T12:08:48.176Z,25.99
2018-05-02T12:11:18.966Z,26.06
2018-05-02T12:13:49.740Z,25.48
2018-05-02T12:16:20.557Z,25.35
2018-05-02T12:18:51.357Z,25.13
2018-05-02T12:21:22.175Z,25.63
2018-05-02T12:23:52.959Z,25.73
2018-05-02T12:26:23.746Z,26.37
2018-05-02T12:28:54.512Z,25.95
2018-05-02T12:31:25.319Z,27.07
2018-05-02T12:33:56.091Z,26.93
2018-05-02T12:36:26.898Z,26.31
2018-05-02T12:38:57.695Z,26.45
2018-05-02T12:41:28.523Z,26.97
2018-05-02T12:43:59.314Z,27.17
2018-05-02T12:46:30.125Z,26.67
2018-05-02T12:49:00.949Z,25.77
2018-05-02T12:51:31.733Z,25.65
2018-05-02T12:54:02.615Z,26.26
2018-05-02T12:56:33.368Z,26.15
2018-05-02T12:59:04.146Z,26.58
2018-05-02T13:01:34.947Z,26.92
2018-05-02T13:04:05.721Z,26.93
2018-05-02T13:06:36.513Z,26.82
2018-05-02T13:09:07.284Z,26.15
2018-05-02T13:11:38.128Z,26.74
2018-05-02T13:14:08.935Z,26.62
2018-05-02T13:16:39.728Z,26.82
2018-05-02T13:19:10.511Z,27.55
2018-05-02T13:21:41.287Z,27.01
2018-05-02T13:24:12.063Z,26.16
2018-05-02T13:26:42.873Z,25.35
2018-05-02T13:29:13.660Z,24.99
2018-05-02T13:31:44.460Z,25.87
2018-05-02T13:34:15.248Z,26.36
2018-05-02T13:36:46.031Z,26.75
2018-05-02T13:39:16.804Z,25.66
2018-05-02T13:41:47.610Z,26.39
2018-05-02T13:44:18.389Z,26.73
2018-05-02T13:46:49.176Z,26.99
2018-05-02T13:49:20.054Z,27.04
2018-05-02T13:51:50.772Z,26.55
2018-05-02T13:54:21.525Z,26.78
2018-05-02T13:56:52.316Z,25.53
2018-05-02T13:59:23.106Z,25.04
2018-05-02T14:01:54.078Z,25.06
2018-05-02T14:04:24.875Z,24.64
2018-05-02T14:06:55.699Z,24.60
2018-05-02T14:09:26.465Z,24.65
2018-05-02T14:11:57.275Z,24.86
2018-05-02T14:14:28.029Z,25.08
2018-05-02T14:17:06.528Z,24.73
2018-05-02T14:19:37.308Z,24.82
2018-05-02T14:22:08.093Z,24.65
2018-05-02T14:24:40.928Z,24.76
2018-05-02T14:27:11.643Z,25.20
2018-05-02T14:29:42.420Z,26.14
2018-05-02T14:32:13.200Z,26.47
2018-05-02T14:34:43.956Z,26.31
2018-05-02T14:37:14.769Z,25.87
2018-05-02T14:39:45.566Z,25.59
2018-05-02T14:42:16.359Z,25.16
2018-05-02T14:44:47.132Z,24.74
2018-05-02T14:47:17.931Z,24.27
2018-05-02T14:49:48.708Z,24.30
2018-05-02T14:52:19.488Z,24.12
2018-05-02T14:54:50.266Z,24.00
2018-05-02T14:57:21.067Z,23.75
2018-05-02T14:59:51.865Z,24.13
2018-05-02T15:02:22.792Z,24.37
2018-05-02T15:04:53.469Z,24.21
2018-05-02T15:07:24.269Z,23.91
2018-05-02T15:09:55.045Z,23.86
2018-05-02T15:12:25.855Z,23.66
2018-05-02T15:14:56.616Z,23.84
2018-05-02T15:17:28.077Z,23.72
2018-05-02T15:19:58.851Z,23.57
2018-05-02T15:22:29.627Z,23.37
2018-05-02T15:25:00.410Z,23.42
2018-05-02T15:27:31.204Z,23.70
2018-05-02T15:30:02.001Z,23.95
2018-05-02T15:32:32.829Z,24.31
2018-05-02T15:35:03.628Z,24.82
2018-05-02T15:37:34.424Z,24.74
2018-05-02T15:40:05.199Z,25.10
2018-05-02T15:42:36.030Z,25.35
2018-05-02T15:45:06.821Z,24.72
2018-05-02T15:47:37.639Z,25.14
2018-05-02T15:50:08.423Z,25.36
2018-05-02T15:52:39.242Z,25.08
2018-05-02T15:55:10.020Z,24.56
2018-05-02T15:57:40.904Z,24.88
2018-05-02T16:00:11.652Z,25.14
2018-05-02T16:02:42.454Z,24.78
2018-05-02T16:05:13.274Z,24.44
2018-05-02T16:07:44.097Z,25.09
2018-05-02T16:10:14.909Z,24.86
2018-05-02T16:12:45.695Z,24.35
2018-05-02T16:15:16.621Z,23.59
2018-05-02T16:17:47.443Z,23.60
2018-05-02T16:20:18.219Z,23.57
2018-05-02T16:22:48.994Z,23.35
2018-05-02T16:25:19.817Z,23.17
2018-05-02T16:27:50.670Z,23.13
2018-05-02T16:30:21.393Z,23.15
2018-05-02T16:32:52.179Z,22.75
2018-05-02T16:35:22.947Z,22.76
2018-05-02T16:37:53.737Z,22.94
2018-05-02T16:40:24.521Z,22.78
2018-05-02T16:42:55.435Z,22.55
2018-05-02T16:45:26.244Z,22.44
2018-05-02T16:47:57.036Z,22.28
2018-05-02T16:50:27.811Z,22.17
2018-05-02T16:52:58.617Z,22.13
2018-05-02T16:55:29.375Z,22.00
2018-05-02T16:58:00.203Z,22.09
2018-05-02T17:00:30.989Z,21.93
2018-05-02T17:03:01.775Z,21.85
2018-05-02T17:05:32.564Z,21.78
2018-05-02T17:08:03.345Z,21.64
2018-05-02T17:10:34.119Z,21.45
2018-05-02T17:13:04.927Z,21.49
2018-05-02T17:15:35.719Z,21.37
2018-05-02T17:18:06.517Z,21.35
2018-05-02T17:20:37.280Z,21.14
2018-05-02T17:23:08.066Z,21.14
2018-05-02T17:25:38.843Z,21.16
2018-05-02T17:28:09.656Z,20.94
2018-05-02T17:30:40.440Z,21.05
2018-05-02T17:33:11.240Z,20.74
2018-05-02T17:35:42.038Z,20.77
2018-05-02T17:38:12.840Z,20.62
2018-05-02T17:40:43.615Z,20.42
2018-05-02T17:43:14.399Z,20.46
2018-05-02T17:45:45.185Z,20.25
2018-05-02T17:48:15.972Z,20.10
2018-05-02T17:50:46.731Z,20.00
2018-05-02T17:53:17.521Z,19.88
2018-05-02T17:55:48.297Z,19.79
2018-05-02T17:58:19.091Z,19.80
2018-05-02T18:00:49.956Z,19.63
2018-05-02T18:03:20.777Z,19.57
2018-05-02T18:05:51.577Z,19.49
2018-05-02T18:08:22.396Z,19.37
2018-05-02T18:10:53.204Z,19.32
2018-05-02T18:13:24.019Z,19.20
2018-05-02T18:15:54.815Z,19.10
2018-05-02T18:18:25.631Z,18.90
2018-05-02T18:20:56.433Z,18.78
2018-05-02T18:23:27.239Z,18.74
2018-05-02T18:25:58.009Z,18.75
2018-05-02T18:28:28.817Z,18.66
2018-05-02T18:30:59.617Z,18.54
2018-05-02T18:33:30.475Z,18.52
2018-05-02T18:36:01.236Z,18.46
2018-05-02T18:38:32.054Z,18.37
2018-05-02T18:41:02.842Z,18.30
2018-05-02T18:43:33.640Z,18.29
2018-05-02T18:46:04.430Z,18.22
2018-05-02T18:48:35.248Z,18.13
2018-05-02T18:51:06.013Z,18.04
2018-05-02T18:53:36.839Z,17.99
2018-05-02T18:56:07.644Z,17.88
2018-05-02T18:58:38.508Z,17.84
2018-05-02T19:01:10.154Z,17.79
2018-05-02T19:03:41.007Z,17.66
2018-05-02T19:06:11.771Z,17.58
2018-05-02T19:08:42.564Z,17.58
2018-05-02T19:11:13.328Z,17.57
2018-05-02T19:13:50.292Z,17.53
2018-05-02T19:16:21.066Z,17.51
2018-05-02T19:18:58.113Z,17.52
2018-05-02T19:21:29.568Z,17.38
2018-05-02T19:24:00.444Z,17.32
2018-05-02T19:26:36.155Z,17.29
2018-05-02T19:29:06.936Z,17.19
2018-05-02T19:31:43.857Z,17.14
2018-05-02T19:34:14.624Z,17.02
2018-05-02T19:36:45.390Z,16.98
2018-05-02T19:39:16.195Z,16.92
2018-05-02T19:41:53.017Z,16.90
2018-05-02T19:44:23.854Z,16.91
2018-05-02T19:46:54.603Z,16.86
2018-05-02T19:49:25.516Z,16.83
2018-05-02T19:52:02.176Z,16.71
2018-05-02T19:54:32.979Z,16.65
2018-05-02T19:57:03.829Z,16.70
2018-05-02T19:59:34.688Z,16.69
2018-05-02T20:02:11.644Z,16.66
2018-05-02T20:04:42.587Z,16.70
2018-05-02T20:07:19.475Z,16.61
2018-05-02T20:09:56.492Z,16.59
2018-05-02T20:12:34.256Z,16.58
2018-05-02T20:15:04.999Z,16.53
2018-05-02T20:17:35.760Z,16.50
2018-05-02T20:20:06.537Z,16.45
2018-05-02T20:22:37.328Z,16.38
2018-05-02T20:25:08.109Z,16.35
2018-05-02T20:27:38.895Z,16.33
2018-05-02T20:30:09.728Z,16.29
2018-05-02T20:32:40.489Z,16.31
2018-05-02T20:35:11.258Z,16.30
2018-05-02T20:37:42.039Z,16.24
2018-05-02T20:40:12.828Z,16.19
2018-05-02T20:42:43.616Z,16.15
2018-05-02T20:45:14.401Z,16.14
2018-05-02T20:47:45.187Z,16.06
2018-05-02T20:50:15.959Z,16.05
2018-05-02T20:52:46.719Z,16.06
2018-05-02T20:55:17.592Z,15.95
2018-05-02T20:57:48.272Z,15.91
2018-05-02T21:00:19.064Z,15.86
2018-05-02T21:02:49.835Z,15.84
2018-05-02T21:05:20.616Z,15.80
2018-05-02T21:07:51.378Z,15.76
2018-05-02T21:10:22.163Z,15.70
2018-05-02T21:12:52.928Z,15.72
2018-05-02T21:15:23.711Z,15.65
2018-05-02T21:17:54.484Z,15.59
2018-05-02T21:20:25.295Z,15.58
2018-05-02T21:22:56.638Z,15.47
2018-05-02T21:25:27.430Z,15.37
2018-05-02T21:27:58.195Z,15.33
2018-05-02T21:30:28.979Z,15.29
2018-05-02T21:32:59.727Z,15.20
2018-05-02T21:35:30.544Z,15.16
2018-05-02T21:38:01.308Z,15.20
2018-05-02T21:40:32.076Z,15.15
2018-05-02T21:43:02.830Z,15.13
2018-05-02T21:45:33.635Z,15.08
2018-05-02T21:48:04.434Z,15.06
2018-05-02T21:50:35.297Z,15.05
2018-05-02T21:53:06.056Z,15.09
2018-05-02T21:55:36.843Z,15.06
2018-05-02T21:58:08.300Z,15.01
2018-05-02T22:00:39.087Z,14.97
2018-05-02T22:03:09.855Z,14.90
2018-05-02T22:05:40.639Z,14.89
2018-05-02T22:08:11.407Z,14.81
2018-05-02T22:10:42.209Z,14.74
2018-05-02T22:13:12.979Z,14.73
2018-05-02T22:15:43.760Z,14.61
2018-05-02T22:18:14.527Z,14.57
2018-05-02T22:20:45.307Z,14.56
2018-05-02T22:23:16.055Z,14.50
2018-05-02T22:25:48.911Z,14.49
2018-05-02T22:28:19.672Z,14.46
2018-05-02T22:30:50.444Z,14.41
2018-05-02T22:33:21.203Z,14.48
2018-05-02T22:35:51.988Z,14.40
2018-05-02T22:38:22.759Z,14.42
2018-05-02T22:40:53.547Z,14.48
2018-05-02T22:43:24.336Z,14.50
2018-05-02T22:45:55.151Z,14.47
2018-05-02T22:48:25.911Z,14.42
2018-05-02T22:50:56.775Z,14.38
2018-05-02T22:53:27.543Z,14.29
2018-05-02T22:55:58.326Z,14.20
2018-05-02T22:58:29.092Z,14.23
2018-05-02T23:00:59.875Z,14.16
2018-05-02T23:03:30.720Z,14.13
2018-05-02T23:06:01.526Z,14.08
2018-05-02T23:08:32.299Z,14.02
2018-05-02T23:11:03.080Z,14.01
2018-05-02T23:13:33.847Z,13.98
2018-05-02T23:16:04.663Z,13.95
2018-05-02T23:18:35.431Z,13.86
2018-05-02T23:21:06.225Z,13.83
2018-05-02T23:23:37.551Z,13.77
2018-05-02T23:26:08.335Z,13.75
2018-05-02T23:28:39.092Z,13.73
2018-05-02T23:31:09.852Z,13.63
2018-05-02T23:33:40.620Z,13.66
2018-05-02T23:36:11.405Z,13.70
2018-05-02T23:38:42.191Z,13.75
2018-05-02T23:41:12.995Z,13.80
2018-05-02T23:43:43.760Z,13.78
2018-05-02T23:46:14.585Z,13.84
2018-05-02T23:48:45.350Z,13.84
2018-05-02T23:51:16.128Z,13.87
2018-05-02T23:53:46.940Z,13.96
2018-05-02T23:56:17.779Z,14.05
2018-05-02T23:58:48.543Z,14.04
